createdAt,value
2018-03-27T00:00:31.000Z,24
2018-03-27T00:01:31.000Z,24
2018-03-27T00:02:31.000Z,24
2018-03-27T00:03:31.000Z,24
2018-03-27T00:04:31.000Z,24
2018-03-27T00:05:31.000Z,24
2018-03-27T00:06:31.000Z,24
2018-03-27T00:07:31.000Z,24
2018-03-27T00:08:31.000Z,24
2018-03-27T00:09:31.000Z,24
2018-03-27T00:10:31.000Z,24
2018-03-27T00:12:31.000Z,24
2018-03-27T00:13:31.000Z,24
2018-03-27T00:14:31.000Z,24
2018-03-27T00:15:31.000Z,24
2018-03-27T00:16:31.000Z,24
2018-03-27T00:17:31.000Z,24
2018-03-27T00:18:31.000Z,24
2018-03-27T00:19:31.000Z,24
2018-03-27T00:20:31.000Z,24
2018-03-27T00:21:31.000Z,24
2018-03-27T00:22:31.000Z,24
2018-03-27T00:24:31.000Z,24
2018-03-27T00:25:31.000Z,24
2018-03-27T00:26:31.000Z,24
2018-03-27T00:30:17.000Z,24
2018-03-27T00:31:17.000Z,25
2018-03-27T00:32:17.000Z,25
2018-03-27T00:33:17.000Z,25
2018-03-27T00:34:17.000Z,25
2018-03-27T00:35:17.000Z,25
2018-03-27T00:36:17.000Z,25
2018-03-27T00:37:17.000Z,25
2018-03-27T00:39:17.000Z,25
2018-03-27T00:41:17.000Z,25
2018-03-27T00:43:17.000Z,25
2018-03-27T00:45:17.000Z,25
2018-03-27T00:46:17.000Z,25
2018-03-27T00:48:17.000Z,25
2018-03-27T00:49:17.000Z,25
2018-03-27T00:50:17.000Z,25
2018-03-27T00:51:17.000Z,25
2018-03-27T00:52:17.000Z,25
2018-03-27T00:53:17.000Z,25
2018-03-27T00:54:17.000Z,25
2018-03-27T00:55:17.000Z,25
2018-03-27T00:56:17.000Z,25
2018-03-27T00:57:17.000Z,25
2018-03-27T00:58:17.000Z,25
2018-03-27T01:00:17.000Z,24
2018-03-27T01:02:17.000Z,24
2018-03-27T01:03:17.000Z,25
2018-03-27T01:04:17.000Z,25
2018-03-27T01:05:17.000Z,25
2018-03-27T01:06:17.000Z,25
2018-03-27T01:07:17.000Z,25
2018-03-27T01:08:17.000Z,25
2018-03-27T01:09:17.000Z,25
2018-03-27T01:10:17.000Z,25
2018-03-27T01:12:17.000Z,24
2018-03-27T01:13:17.000Z,25
2018-03-27T01:14:17.000Z,25
2018-03-27T01:15:17.000Z,25
2018-03-27T01:16:17.000Z,25
2018-03-27T01:17:17.000Z,25
2018-03-27T01:18:17.000Z,24
2018-03-27T01:19:17.000Z,25
2018-03-27T01:20:17.000Z,24
2018-03-27T01:21:17.000Z,24
2018-03-27T01:22:17.000Z,24
2018-03-27T01:23:17.000Z,24
2018-03-27T01:24:17.000Z,25
2018-03-27T01:25:17.000Z,24
2018-03-27T01:26:16.000Z,24
2018-03-27T01:28:16.000Z,24
2018-03-27T01:29:16.000Z,24
2018-03-27T01:30:16.000Z,24
2018-03-27T01:31:16.000Z,25
2018-03-27T01:32:16.000Z,25
2018-03-27T01:33:16.000Z,24
2018-03-27T01:34:16.000Z,24
2018-03-27T01:35:16.000Z,24
2018-03-27T01:36:16.000Z,24
2018-03-27T01:37:16.000Z,24
2018-03-27T01:38:16.000Z,24
2018-03-27T01:39:16.000Z,24
2018-03-27T01:40:16.000Z,24
2018-03-27T01:41:16.000Z,24
2018-03-27T01:42:16.000Z,24
2018-03-27T01:44:16.000Z,24
2018-03-27T01:45:16.000Z,24
2018-03-27T01:47:16.000Z,24
2018-03-27T01:48:16.000Z,24
2018-03-27T01:49:16.000Z,24
2018-03-27T01:50:16.000Z,24
2018-03-27T01:52:16.000Z,24
2018-03-27T01:53:16.000Z,24
2018-03-27T01:54:16.000Z,24
2018-03-27T01:55:16.000Z,24
2018-03-27T01:56:16.000Z,24
2018-03-27T01:57:16.000Z,24
2018-03-27T01:58:16.000Z,24
2018-03-27T01:59:16.000Z,24
2018-03-27T02:01:16.000Z,24
2018-03-27T02:03:16.000Z,24
2018-03-27T02:04:16.000Z,24
2018-03-27T02:05:16.000Z,24
2018-03-27T02:06:16.000Z,25
2018-03-27T02:07:16.000Z,24
2018-03-27T02:08:16.000Z,25
2018-03-27T02:09:16.000Z,25
2018-03-27T02:11:16.000Z,25
2018-03-27T02:12:16.000Z,25
2018-03-27T02:13:16.000Z,25
2018-03-27T02:14:16.000Z,25
2018-03-27T02:15:16.000Z,25
2018-03-27T02:17:16.000Z,24
2018-03-27T02:18:16.000Z,24
2018-03-27T02:19:16.000Z,24
2018-03-27T02:20:16.000Z,24
2018-03-27T02:21:16.000Z,24
2018-03-27T02:22:16.000Z,24
2018-03-27T02:23:16.000Z,24
2018-03-27T02:24:16.000Z,24
2018-03-27T02:26:16.000Z,24
2018-03-27T02:27:16.000Z,24
2018-03-27T02:28:16.000Z,25
2018-03-27T02:29:16.000Z,24
2018-03-27T02:30:16.000Z,24
2018-03-27T02:31:16.000Z,24
2018-03-27T02:32:16.000Z,24
2018-03-27T02:34:16.000Z,24
2018-03-27T02:35:16.000Z,24
2018-03-27T02:36:16.000Z,24
2018-03-27T02:37:16.000Z,24
2018-03-27T02:39:16.000Z,24
2018-03-27T02:41:16.000Z,24
2018-03-27T02:42:16.000Z,24
2018-03-27T02:44:16.000Z,24
2018-03-27T02:45:16.000Z,24
2018-03-27T02:46:16.000Z,24
2018-03-27T02:47:16.000Z,25
2018-03-27T02:48:16.000Z,24
2018-03-27T02:50:16.000Z,24
2018-03-27T02:51:16.000Z,25
2018-03-27T02:52:16.000Z,24
2018-03-27T02:53:16.000Z,25
2018-03-27T02:54:16.000Z,24
2018-03-27T02:55:16.000Z,25
2018-03-27T02:56:16.000Z,25
2018-03-27T02:57:16.000Z,25
2018-03-27T02:58:16.000Z,24
2018-03-27T02:59:16.000Z,25
2018-03-27T03:00:16.000Z,25
2018-03-27T03:01:16.000Z,24
2018-03-27T03:02:16.000Z,24
2018-03-27T03:03:16.000Z,24
2018-03-27T03:04:16.000Z,24
2018-03-27T03:05:16.000Z,24
2018-03-27T03:06:16.000Z,24
2018-03-27T03:07:16.000Z,24
2018-03-27T03:08:16.000Z,24
2018-03-27T03:09:16.000Z,24
2018-03-27T03:10:16.000Z,24
2018-03-27T03:11:16.000Z,25
2018-03-27T03:12:16.000Z,24
2018-03-27T03:14:16.000Z,24
2018-03-27T03:15:16.000Z,24
2018-03-27T03:16:16.000Z,24
2018-03-27T03:17:16.000Z,24
2018-03-27T03:18:16.000Z,25
2018-03-27T03:19:16.000Z,24
2018-03-27T03:20:16.000Z,25
2018-03-27T03:22:16.000Z,24
2018-03-27T03:23:16.000Z,25
2018-03-27T03:24:16.000Z,24
2018-03-27T03:25:16.000Z,25
2018-03-27T03:26:16.000Z,24
2018-03-27T03:27:16.000Z,25
2018-03-27T03:28:16.000Z,25
2018-03-27T03:29:16.000Z,24
2018-03-27T03:30:16.000Z,24
2018-03-27T03:31:16.000Z,24
2018-03-27T03:32:16.000Z,24
2018-03-27T03:34:17.000Z,24
2018-03-27T03:35:17.000Z,24
2018-03-27T03:37:17.000Z,24
2018-03-27T03:38:17.000Z,24
2018-03-27T03:39:17.000Z,24
2018-03-27T03:40:17.000Z,24
2018-03-27T03:41:17.000Z,24
2018-03-27T03:42:17.000Z,24
2018-03-27T03:43:17.000Z,24
2018-03-27T03:47:03.000Z,26
2018-03-27T03:48:03.000Z,27
2018-03-27T03:49:03.000Z,28
2018-03-27T03:50:03.000Z,28
2018-03-27T03:51:03.000Z,29
2018-03-27T03:52:03.000Z,30
2018-03-27T03:53:03.000Z,30
2018-03-27T03:54:03.000Z,31
2018-03-27T03:55:03.000Z,31
2018-03-27T03:56:03.000Z,31
2018-03-27T03:57:03.000Z,31
2018-03-27T03:58:03.000Z,31
2018-03-27T03:59:03.000Z,31
2018-03-27T04:00:03.000Z,31
2018-03-27T04:01:03.000Z,32
2018-03-27T04:02:03.000Z,32
2018-03-27T04:03:03.000Z,32
2018-03-27T04:04:03.000Z,32
2018-03-27T04:05:03.000Z,32
2018-03-27T04:06:03.000Z,32
2018-03-27T04:07:03.000Z,32
2018-03-27T04:08:03.000Z,32
2018-03-27T04:09:03.000Z,32
2018-03-27T04:10:03.000Z,32
2018-03-27T04:11:03.000Z,32
2018-03-27T04:12:03.000Z,32
2018-03-27T04:13:03.000Z,32
2018-03-27T04:14:03.000Z,32
2018-03-27T04:15:03.000Z,32
2018-03-27T04:17:03.000Z,32
2018-03-27T04:18:03.000Z,32
2018-03-27T04:19:03.000Z,32
2018-03-27T04:20:03.000Z,32
2018-03-27T04:21:03.000Z,32
2018-03-27T04:22:03.000Z,32
2018-03-27T04:23:03.000Z,32
2018-03-27T04:24:03.000Z,32
2018-03-27T04:26:03.000Z,31
2018-03-27T04:27:03.000Z,32
2018-03-27T04:28:03.000Z,32
2018-03-27T04:29:03.000Z,32
2018-03-27T04:30:03.000Z,32
2018-03-27T04:31:03.000Z,32
2018-03-27T04:32:03.000Z,31
2018-03-27T04:33:03.000Z,31
2018-03-27T04:35:03.000Z,31
2018-03-27T04:37:02.000Z,31
2018-03-27T04:38:02.000Z,31
2018-03-27T04:39:02.000Z,31
2018-03-27T04:40:02.000Z,31
2018-03-27T04:42:02.000Z,31
2018-03-27T04:43:02.000Z,31
2018-03-27T04:44:02.000Z,31
2018-03-27T04:45:02.000Z,30
2018-03-27T04:46:02.000Z,30
2018-03-27T04:47:02.000Z,30
2018-03-27T04:49:02.000Z,30
2018-03-27T04:50:02.000Z,30
2018-03-27T04:51:02.000Z,30
2018-03-27T04:52:02.000Z,30
2018-03-27T04:53:02.000Z,30
2018-03-27T04:54:02.000Z,30
2018-03-27T04:55:02.000Z,30
2018-03-27T04:56:02.000Z,30
2018-03-27T04:57:02.000Z,30
2018-03-27T04:59:02.000Z,29
2018-03-27T05:01:02.000Z,29
2018-03-27T05:02:02.000Z,29
2018-03-27T05:03:02.000Z,29
2018-03-27T05:04:02.000Z,29
2018-03-27T05:05:02.000Z,29
2018-03-27T05:07:02.000Z,29
2018-03-27T05:08:02.000Z,29
2018-03-27T05:09:02.000Z,29
2018-03-27T05:11:02.000Z,28
2018-03-27T05:12:02.000Z,28
2018-03-27T05:13:02.000Z,28
2018-03-27T05:14:02.000Z,28
2018-03-27T05:16:02.000Z,28
2018-03-27T05:17:02.000Z,28
2018-03-27T05:18:02.000Z,28
2018-03-27T05:19:02.000Z,28
2018-03-27T05:20:02.000Z,28
2018-03-27T05:21:02.000Z,28
2018-03-27T05:22:02.000Z,28
2018-03-27T05:23:02.000Z,28
2018-03-27T05:24:02.000Z,28
2018-03-27T05:25:02.000Z,28
2018-03-27T05:26:02.000Z,28
2018-03-27T05:27:02.000Z,28
2018-03-27T05:28:02.000Z,28
2018-03-27T05:29:02.000Z,28
2018-03-27T05:31:02.000Z,28
2018-03-27T05:32:02.000Z,28
2018-03-27T05:33:02.000Z,28
2018-03-27T05:34:02.000Z,28
2018-03-27T05:35:02.000Z,28
2018-03-27T05:36:02.000Z,28
2018-03-27T05:37:02.000Z,28
2018-03-27T05:38:02.000Z,28
2018-03-27T05:39:02.000Z,28
2018-03-27T05:40:02.000Z,28
2018-03-27T05:41:02.000Z,27
2018-03-27T05:42:02.000Z,28
2018-03-27T05:43:02.000Z,28
2018-03-27T05:44:02.000Z,28
2018-03-27T05:45:02.000Z,27
2018-03-27T05:46:02.000Z,27
2018-03-27T05:47:02.000Z,27
2018-03-27T05:48:02.000Z,27
2018-03-27T05:49:02.000Z,27
2018-03-27T05:50:02.000Z,27
2018-03-27T05:51:02.000Z,27
2018-03-27T05:52:02.000Z,27
2018-03-27T05:53:02.000Z,27
2018-03-27T05:54:02.000Z,27
2018-03-27T05:55:02.000Z,27
2018-03-27T05:56:02.000Z,27
2018-03-27T05:57:02.000Z,28
2018-03-27T05:58:02.000Z,28
2018-03-27T05:59:02.000Z,28
2018-03-27T06:00:02.000Z,28
2018-03-27T06:01:02.000Z,28
2018-03-27T06:02:02.000Z,28
2018-03-27T06:03:02.000Z,28
2018-03-27T06:04:02.000Z,28
2018-03-27T06:05:02.000Z,28
2018-03-27T06:06:02.000Z,28
2018-03-27T06:07:02.000Z,28
2018-03-27T06:08:02.000Z,27
2018-03-27T06:09:02.000Z,28
2018-03-27T06:10:02.000Z,27
2018-03-27T06:11:02.000Z,27
2018-03-27T06:12:02.000Z,28
2018-03-27T06:13:02.000Z,28
2018-03-27T06:15:02.000Z,28
2018-03-27T06:16:02.000Z,28
2018-03-27T06:17:02.000Z,28
2018-03-27T06:18:02.000Z,28
2018-03-27T06:19:02.000Z,28
2018-03-27T06:20:02.000Z,28
2018-03-27T06:21:02.000Z,28
2018-03-27T06:22:02.000Z,28
2018-03-27T06:23:02.000Z,28
2018-03-27T06:24:02.000Z,28
2018-03-27T06:26:02.000Z,28
2018-03-27T06:27:02.000Z,28
2018-03-27T06:28:02.000Z,28
2018-03-27T06:29:02.000Z,28
2018-03-27T06:30:02.000Z,28
2018-03-27T06:32:02.000Z,28
2018-03-27T06:33:02.000Z,28
2018-03-27T06:34:02.000Z,28
2018-03-27T06:35:02.000Z,28
2018-03-27T06:36:02.000Z,28
2018-03-27T06:37:02.000Z,28
2018-03-27T06:38:02.000Z,28
2018-03-27T06:39:02.000Z,28
2018-03-27T06:41:02.000Z,28
2018-03-27T06:42:02.000Z,28
2018-03-27T06:43:02.000Z,28
2018-03-27T06:44:03.000Z,27
2018-03-27T06:45:03.000Z,28
2018-03-27T06:46:03.000Z,27
2018-03-27T06:47:03.000Z,27
2018-03-27T06:48:03.000Z,27
2018-03-27T06:49:03.000Z,27
2018-03-27T06:50:03.000Z,27
2018-03-27T06:51:03.000Z,27
2018-03-27T06:52:03.000Z,27
2018-03-27T06:53:03.000Z,27
2018-03-27T06:54:03.000Z,27
2018-03-27T06:55:03.000Z,27
2018-03-27T06:56:03.000Z,27
2018-03-27T06:57:03.000Z,27
2018-03-27T06:58:03.000Z,27
2018-03-27T06:59:03.000Z,27
2018-03-27T07:00:03.000Z,27
2018-03-27T07:02:03.000Z,27
2018-03-27T07:03:03.000Z,27
2018-03-27T07:04:03.000Z,27
2018-03-27T07:05:03.000Z,27
2018-03-27T07:06:03.000Z,27
2018-03-27T07:07:03.000Z,27
2018-03-27T07:08:03.000Z,27
2018-03-27T07:09:03.000Z,27
2018-03-27T07:10:03.000Z,27
2018-03-27T07:11:03.000Z,26
2018-03-27T07:12:03.000Z,26
2018-03-27T07:13:03.000Z,26
2018-03-27T07:14:03.000Z,26
2018-03-27T07:15:03.000Z,26
2018-03-27T07:16:03.000Z,26
2018-03-27T07:17:03.000Z,26
2018-03-27T07:18:03.000Z,26
2018-03-27T07:19:03.000Z,26
2018-03-27T07:20:03.000Z,26
2018-03-27T07:21:03.000Z,26
2018-03-27T07:22:03.000Z,26
2018-03-27T07:23:03.000Z,26
2018-03-27T07:24:03.000Z,26
2018-03-27T07:26:03.000Z,26
2018-03-27T07:28:03.000Z,27
2018-03-27T07:29:03.000Z,27
2018-03-27T07:30:03.000Z,27
2018-03-27T07:31:03.000Z,27
2018-03-27T07:32:03.000Z,27
2018-03-27T07:34:03.000Z,27
2018-03-27T07:35:03.000Z,27
2018-03-27T07:36:03.000Z,27
2018-03-27T07:37:03.000Z,27
2018-03-27T07:38:03.000Z,27
2018-03-27T07:39:03.000Z,27
2018-03-27T07:40:03.000Z,27
2018-03-27T07:42:03.000Z,27
2018-03-27T07:43:03.000Z,27
2018-03-27T07:44:03.000Z,27
2018-03-27T07:45:03.000Z,27
2018-03-27T07:46:03.000Z,27
2018-03-27T07:47:03.000Z,27
2018-03-27T07:49:02.000Z,27
2018-03-27T07:50:02.000Z,28
2018-03-27T07:51:02.000Z,28
2018-03-27T07:52:02.000Z,28
2018-03-27T07:53:02.000Z,28
2018-03-27T07:55:02.000Z,28
2018-03-27T07:56:02.000Z,28
2018-03-27T07:57:02.000Z,28
2018-03-27T07:58:02.000Z,28
2018-03-27T08:00:02.000Z,28
2018-03-27T08:01:02.000Z,28
2018-03-27T08:02:02.000Z,28
2018-03-27T08:03:02.000Z,28
2018-03-27T08:04:02.000Z,28
2018-03-27T08:06:02.000Z,28
2018-03-27T08:07:02.000Z,28
2018-03-27T08:08:02.000Z,28
2018-03-27T08:09:02.000Z,27
2018-03-27T08:10:02.000Z,27
2018-03-27T08:11:02.000Z,27
2018-03-27T08:13:02.000Z,27
2018-03-27T08:14:02.000Z,27
2018-03-27T08:15:02.000Z,27
2018-03-27T08:16:02.000Z,27
2018-03-27T08:17:02.000Z,27
2018-03-27T08:18:02.000Z,27
2018-03-27T08:19:02.000Z,27
2018-03-27T08:20:02.000Z,27
2018-03-27T08:21:02.000Z,26
2018-03-27T08:22:02.000Z,26
2018-03-27T08:23:02.000Z,26
2018-03-27T08:24:02.000Z,26
2018-03-27T08:25:02.000Z,26
2018-03-27T08:26:02.000Z,26
2018-03-27T08:27:02.000Z,26
2018-03-27T08:28:02.000Z,26
2018-03-27T08:29:02.000Z,26
2018-03-27T08:30:02.000Z,26
2018-03-27T08:31:02.000Z,26
2018-03-27T08:32:02.000Z,26
2018-03-27T08:34:02.000Z,26
2018-03-27T08:35:02.000Z,26
2018-03-27T08:36:02.000Z,26
2018-03-27T08:37:02.000Z,26
2018-03-27T08:38:02.000Z,26
2018-03-27T08:39:02.000Z,26
2018-03-27T08:40:02.000Z,26
2018-03-27T08:41:02.000Z,26
2018-03-27T08:43:02.000Z,26
2018-03-27T08:44:02.000Z,26
2018-03-27T08:46:02.000Z,26
2018-03-27T08:47:02.000Z,26
2018-03-27T08:48:02.000Z,26
2018-03-27T08:49:02.000Z,26
2018-03-27T08:50:02.000Z,25
2018-03-27T08:51:02.000Z,26
2018-03-27T08:52:03.000Z,26
2018-03-27T08:53:03.000Z,26
2018-03-27T08:54:03.000Z,25
2018-03-27T08:55:03.000Z,26
2018-03-27T08:56:03.000Z,25
2018-03-27T08:57:03.000Z,25
2018-03-27T08:58:03.000Z,26
2018-03-27T08:59:03.000Z,25
2018-03-27T09:00:03.000Z,25
2018-03-27T09:01:03.000Z,25
2018-03-27T09:02:03.000Z,25
2018-03-27T09:03:03.000Z,25
2018-03-27T09:04:03.000Z,25
2018-03-27T09:05:03.000Z,25
2018-03-27T09:06:03.000Z,25
2018-03-27T09:07:03.000Z,25
2018-03-27T09:08:03.000Z,25
2018-03-27T09:09:03.000Z,25
2018-03-27T09:10:03.000Z,25
2018-03-27T09:11:03.000Z,25
2018-03-27T09:12:03.000Z,25
2018-03-27T09:13:03.000Z,25
2018-03-27T09:15:03.000Z,25
2018-03-27T09:16:03.000Z,25
2018-03-27T09:17:03.000Z,25
2018-03-27T09:18:03.000Z,24
2018-03-27T09:19:03.000Z,24
2018-03-27T09:20:03.000Z,24
2018-03-27T09:21:03.000Z,24
2018-03-27T09:22:03.000Z,24
2018-03-27T09:23:03.000Z,24
2018-03-27T09:24:03.000Z,24
2018-03-27T09:26:03.000Z,24
2018-03-27T09:27:03.000Z,24
2018-03-27T09:28:03.000Z,24
2018-03-27T09:29:03.000Z,24
2018-03-27T09:30:03.000Z,24
2018-03-27T09:31:03.000Z,24
2018-03-27T09:32:03.000Z,24
2018-03-27T09:34:03.000Z,24
2018-03-27T09:35:03.000Z,24
2018-03-27T09:36:03.000Z,24
2018-03-27T09:38:03.000Z,23
2018-03-27T09:39:03.000Z,23
2018-03-27T09:40:03.000Z,23
2018-03-27T09:42:03.000Z,23
2018-03-27T09:43:03.000Z,23
2018-03-27T09:45:03.000Z,23
2018-03-27T09:46:03.000Z,23
2018-03-27T09:47:03.000Z,23
2018-03-27T09:48:03.000Z,23
2018-03-27T09:49:03.000Z,23
2018-03-27T09:51:03.000Z,23
2018-03-27T09:52:03.000Z,23
2018-03-27T09:53:03.000Z,23
2018-03-27T09:54:03.000Z,23
2018-03-27T09:55:02.000Z,23
2018-03-27T09:56:02.000Z,23
2018-03-27T09:57:02.000Z,23
2018-03-27T09:58:02.000Z,23
2018-03-27T09:59:02.000Z,23
2018-03-27T10:00:02.000Z,23
2018-03-27T10:01:02.000Z,23
2018-03-27T10:02:02.000Z,23
2018-03-27T10:03:02.000Z,23
2018-03-27T10:04:02.000Z,23
2018-03-27T10:05:02.000Z,23
2018-03-27T10:07:02.000Z,23
2018-03-27T10:08:02.000Z,23
2018-03-27T10:09:02.000Z,23
2018-03-27T10:10:02.000Z,23
2018-03-27T10:11:02.000Z,22
2018-03-27T10:12:02.000Z,22
2018-03-27T10:13:02.000Z,22
2018-03-27T10:14:02.000Z,22
2018-03-27T10:15:02.000Z,22
2018-03-27T10:16:02.000Z,22
2018-03-27T10:17:02.000Z,22
2018-03-27T10:18:02.000Z,22
2018-03-27T10:19:02.000Z,22
2018-03-27T10:21:02.000Z,22
2018-03-27T10:22:02.000Z,22
2018-03-27T10:23:02.000Z,22
2018-03-27T10:24:02.000Z,22
2018-03-27T10:26:02.000Z,21
2018-03-27T10:27:02.000Z,22
2018-03-27T10:28:02.000Z,22
2018-03-27T10:29:02.000Z,21
2018-03-27T10:30:02.000Z,21
2018-03-27T10:31:02.000Z,21
2018-03-27T10:32:02.000Z,21
2018-03-27T10:33:02.000Z,21
2018-03-27T10:34:02.000Z,21
2018-03-27T10:35:02.000Z,21
2018-03-27T10:36:02.000Z,21
2018-03-27T10:37:02.000Z,21
2018-03-27T10:38:02.000Z,21
2018-03-27T10:39:02.000Z,21
2018-03-27T10:40:02.000Z,21
2018-03-27T10:41:02.000Z,21
2018-03-27T10:42:02.000Z,21
2018-03-27T10:43:02.000Z,21
2018-03-27T10:44:02.000Z,21
2018-03-27T10:46:02.000Z,21
2018-03-27T10:47:02.000Z,21
2018-03-27T10:48:02.000Z,21
2018-03-27T10:49:02.000Z,21
2018-03-27T10:50:02.000Z,21
2018-03-27T10:51:02.000Z,21
2018-03-27T10:52:02.000Z,21
2018-03-27T10:53:02.000Z,21
2018-03-27T10:54:02.000Z,22
2018-03-27T10:55:02.000Z,22
2018-03-27T10:57:02.000Z,22
2018-03-27T10:58:02.000Z,22
2018-03-27T10:59:02.000Z,22
2018-03-27T11:00:02.000Z,22
2018-03-27T11:01:02.000Z,22
2018-03-27T11:02:02.000Z,22
2018-03-27T11:03:02.000Z,22
2018-03-27T11:04:02.000Z,22
2018-03-27T11:05:02.000Z,22
2018-03-27T11:06:02.000Z,22
2018-03-27T11:07:02.000Z,22
2018-03-27T11:08:02.000Z,22
2018-03-27T11:09:02.000Z,22
2018-03-27T11:10:02.000Z,22
2018-03-27T11:12:02.000Z,22
2018-03-27T11:13:02.000Z,22
2018-03-27T11:14:02.000Z,22
2018-03-27T11:15:02.000Z,22
2018-03-27T11:16:02.000Z,22
2018-03-27T11:18:02.000Z,22
2018-03-27T11:19:02.000Z,22
2018-03-27T11:21:02.000Z,22
2018-03-27T11:22:02.000Z,22
2018-03-27T11:23:02.000Z,22
2018-03-27T11:24:02.000Z,22
2018-03-27T11:25:02.000Z,22
2018-03-27T11:26:02.000Z,22
2018-03-27T11:27:02.000Z,22
2018-03-27T11:28:02.000Z,22
2018-03-27T11:29:02.000Z,22
2018-03-27T11:31:02.000Z,22
2018-03-27T11:32:02.000Z,22
2018-03-27T11:33:02.000Z,22
2018-03-27T11:34:02.000Z,22
2018-03-27T11:35:02.000Z,22
2018-03-27T11:36:02.000Z,22
2018-03-27T11:37:02.000Z,22
2018-03-27T11:38:02.000Z,22
2018-03-27T11:39:02.000Z,22
2018-03-27T11:40:02.000Z,22
2018-03-27T11:42:02.000Z,22
2018-03-27T11:43:02.000Z,22
2018-03-27T11:44:02.000Z,22
2018-03-27T11:45:02.000Z,22
2018-03-27T11:46:02.000Z,22
2018-03-27T11:48:02.000Z,22
2018-03-27T11:49:02.000Z,22
2018-03-27T11:50:02.000Z,22
2018-03-27T11:51:02.000Z,21
2018-03-27T11:52:02.000Z,21
2018-03-27T11:53:02.000Z,21
2018-03-27T11:54:02.000Z,21
2018-03-27T11:56:02.000Z,21
2018-03-27T11:57:02.000Z,21
2018-03-27T11:58:02.000Z,21
2018-03-27T11:59:02.000Z,21
2018-03-27T12:01:02.000Z,21
2018-03-27T12:02:02.000Z,21
2018-03-27T12:04:03.000Z,21
2018-03-27T12:05:03.000Z,21
2018-03-27T12:06:03.000Z,21
2018-03-27T12:07:03.000Z,21
2018-03-27T12:08:03.000Z,21
2018-03-27T12:09:03.000Z,21
2018-03-27T12:10:03.000Z,21
2018-03-27T12:11:03.000Z,21
2018-03-27T12:12:03.000Z,21
2018-03-27T12:13:03.000Z,21
2018-03-27T12:15:03.000Z,21
2018-03-27T12:16:03.000Z,21
2018-03-27T12:17:03.000Z,21
2018-03-27T12:18:03.000Z,21
2018-03-27T12:19:03.000Z,21
2018-03-27T12:20:03.000Z,21
2018-03-27T12:21:03.000Z,21
2018-03-27T12:22:03.000Z,21
2018-03-27T12:23:03.000Z,21
2018-03-27T12:24:03.000Z,21
2018-03-27T12:26:03.000Z,21
2018-03-27T12:27:03.000Z,21
2018-03-27T12:28:03.000Z,21
2018-03-27T12:29:03.000Z,21
2018-03-27T12:30:03.000Z,21
2018-03-27T12:31:03.000Z,21
2018-03-27T12:32:03.000Z,21
2018-03-27T12:33:03.000Z,21
2018-03-27T12:34:03.000Z,21
2018-03-27T12:35:03.000Z,21
2018-03-27T12:36:03.000Z,22
2018-03-27T12:37:03.000Z,21
2018-03-27T12:38:03.000Z,21
2018-03-27T12:39:03.000Z,21
2018-03-27T12:40:03.000Z,21
2018-03-27T12:41:03.000Z,22
2018-03-27T12:42:03.000Z,22
2018-03-27T12:43:03.000Z,21
2018-03-27T12:44:03.000Z,22
2018-03-27T12:46:03.000Z,21
2018-03-27T12:47:03.000Z,22
2018-03-27T12:48:03.000Z,21
2018-03-27T12:49:03.000Z,22
2018-03-27T12:50:03.000Z,21
2018-03-27T12:51:03.000Z,22
2018-03-27T12:52:03.000Z,22
2018-03-27T12:53:03.000Z,22
2018-03-27T12:54:03.000Z,22
2018-03-27T12:55:03.000Z,22
2018-03-27T12:56:03.000Z,22
2018-03-27T12:58:03.000Z,21
2018-03-27T12:59:03.000Z,22
2018-03-27T13:00:03.000Z,22
2018-03-27T13:02:03.000Z,22
2018-03-27T13:03:03.000Z,22
2018-03-27T13:04:03.000Z,22
2018-03-27T13:06:03.000Z,22
2018-03-27T13:07:03.000Z,22
2018-03-27T13:08:03.000Z,22
2018-03-27T13:09:03.000Z,22
2018-03-27T13:10:03.000Z,22
2018-03-27T13:11:03.000Z,22
2018-03-27T13:12:03.000Z,21
2018-03-27T13:13:03.000Z,22
2018-03-27T13:14:03.000Z,22
2018-03-27T13:15:03.000Z,21
2018-03-27T13:16:03.000Z,21
2018-03-27T13:17:03.000Z,21
2018-03-27T13:18:03.000Z,22
2018-03-27T13:19:03.000Z,21
2018-03-27T13:21:03.000Z,21
2018-03-27T13:22:03.000Z,21
2018-03-27T13:23:03.000Z,22
2018-03-27T13:24:03.000Z,22
2018-03-27T13:25:03.000Z,22
2018-03-27T13:26:03.000Z,22
2018-03-27T13:27:03.000Z,22
2018-03-27T13:28:03.000Z,22
2018-03-27T13:29:03.000Z,22
2018-03-27T13:30:03.000Z,22
2018-03-27T13:31:03.000Z,22
2018-03-27T13:32:03.000Z,21
2018-03-27T13:33:03.000Z,22
2018-03-27T13:34:03.000Z,21
2018-03-27T13:36:03.000Z,21
2018-03-27T13:37:03.000Z,21
2018-03-27T13:38:03.000Z,21
2018-03-27T13:39:03.000Z,21
2018-03-27T13:40:03.000Z,21
2018-03-27T13:41:03.000Z,21
2018-03-27T13:42:03.000Z,21
2018-03-27T13:43:03.000Z,21
2018-03-27T13:44:03.000Z,21
2018-03-27T13:45:03.000Z,21
2018-03-27T13:46:03.000Z,21
2018-03-27T13:47:03.000Z,21
2018-03-27T13:48:03.000Z,21
2018-03-27T13:49:03.000Z,21
2018-03-27T13:50:03.000Z,21
2018-03-27T13:51:03.000Z,21
2018-03-27T13:52:03.000Z,22
2018-03-27T13:53:03.000Z,22
2018-03-27T13:54:03.000Z,22
2018-03-27T13:55:03.000Z,22
2018-03-27T13:56:03.000Z,22
2018-03-27T13:57:03.000Z,22
2018-03-27T13:58:03.000Z,22
2018-03-27T13:59:03.000Z,22
2018-03-27T14:01:03.000Z,22
2018-03-27T14:02:03.000Z,22
2018-03-27T14:03:03.000Z,22
2018-03-27T14:04:03.000Z,22
2018-03-27T14:13:49.000Z,23
2018-03-27T14:14:49.000Z,23
2018-03-27T14:16:49.000Z,23
2018-03-27T14:17:49.000Z,23
2018-03-27T14:18:49.000Z,23
2018-03-27T14:19:49.000Z,23
2018-03-27T14:20:49.000Z,23
2018-03-27T14:21:49.000Z,23
2018-03-27T14:23:49.000Z,23
2018-03-27T14:24:49.000Z,23
2018-03-27T14:25:49.000Z,23
2018-03-27T14:26:49.000Z,23
2018-03-27T14:27:49.000Z,23
2018-03-27T14:31:35.000Z,23
2018-03-27T14:32:35.000Z,23
2018-03-27T14:33:35.000Z,23
2018-03-27T14:34:35.000Z,23
2018-03-27T14:35:35.000Z,23
2018-03-27T14:36:35.000Z,23
2018-03-27T14:38:35.000Z,23
2018-03-27T14:39:35.000Z,23
2018-03-27T14:40:35.000Z,23
2018-03-27T14:41:35.000Z,23
2018-03-27T14:42:35.000Z,23
2018-03-27T14:43:35.000Z,23
2018-03-27T14:44:35.000Z,23
2018-03-27T14:45:35.000Z,24
2018-03-27T14:46:35.000Z,23
2018-03-27T14:47:35.000Z,23
2018-03-27T14:49:35.000Z,23
2018-03-27T14:50:35.000Z,23
2018-03-27T14:51:35.000Z,23
2018-03-27T14:53:35.000Z,23
2018-03-27T14:54:35.000Z,24
2018-03-27T14:55:35.000Z,23
2018-03-27T14:56:35.000Z,24
2018-03-27T14:57:35.000Z,23
2018-03-27T14:58:35.000Z,24
2018-03-27T15:00:35.000Z,23
2018-03-27T15:01:35.000Z,24
2018-03-27T15:02:35.000Z,24
2018-03-27T15:03:35.000Z,24
2018-03-27T15:04:35.000Z,24
2018-03-27T15:05:35.000Z,23
2018-03-27T15:06:35.000Z,24
2018-03-27T15:07:35.000Z,23
2018-03-27T15:08:35.000Z,24
2018-03-27T15:10:35.000Z,23
2018-03-27T15:11:35.000Z,24
2018-03-27T15:12:35.000Z,24
2018-03-27T15:13:35.000Z,24
2018-03-27T15:14:35.000Z,24
2018-03-27T15:16:35.000Z,23
2018-03-27T15:17:35.000Z,24
2018-03-27T15:18:35.000Z,24
2018-03-27T15:19:35.000Z,24
2018-03-27T15:20:35.000Z,23
2018-03-27T15:21:35.000Z,23
2018-03-27T15:22:35.000Z,23
2018-03-27T15:23:35.000Z,23
2018-03-27T15:24:35.000Z,23
2018-03-27T15:26:35.000Z,23
2018-03-27T15:27:35.000Z,23
2018-03-27T15:29:35.000Z,23
2018-03-27T15:31:35.000Z,23
2018-03-27T15:32:35.000Z,23
2018-03-27T15:33:35.000Z,23
2018-03-27T15:34:35.000Z,23
2018-03-27T15:35:35.000Z,24
2018-03-27T15:36:35.000Z,23
2018-03-27T15:37:35.000Z,23
2018-03-27T15:39:35.000Z,23
2018-03-27T15:40:35.000Z,23
2018-03-27T15:41:35.000Z,23
2018-03-27T15:42:35.000Z,23
2018-03-27T15:43:35.000Z,23
2018-03-27T15:44:35.000Z,24
2018-03-27T15:45:35.000Z,23
2018-03-27T15:46:35.000Z,24
2018-03-27T15:48:35.000Z,23
2018-03-27T15:49:35.000Z,24
2018-03-27T15:50:35.000Z,23
2018-03-27T15:51:35.000Z,23
2018-03-27T15:52:35.000Z,23
2018-03-27T15:53:35.000Z,23
2018-03-27T15:54:35.000Z,24
2018-03-27T15:55:35.000Z,24
2018-03-27T15:56:35.000Z,23
2018-03-27T15:57:35.000Z,23
2018-03-27T15:58:35.000Z,23
2018-03-27T15:59:35.000Z,23
2018-03-27T16:00:35.000Z,23
2018-03-27T16:01:35.000Z,23
2018-03-27T16:02:35.000Z,23
2018-03-27T16:03:35.000Z,23
2018-03-27T16:04:35.000Z,23
2018-03-27T16:05:35.000Z,23
2018-03-27T16:06:35.000Z,23
2018-03-27T16:07:35.000Z,23
2018-03-27T16:08:35.000Z,23
2018-03-27T16:09:35.000Z,23
2018-03-27T16:11:35.000Z,23
2018-03-27T16:12:35.000Z,23
2018-03-27T16:13:35.000Z,23